Acb Export from India

Acb

Acb export data

Date HS Code Product Description Origin Port Destination Port Quantity Value (INR in Million) Unit Per Unit (INR)
2016-04-18 85362010 47667AB NW 08/20 H2 3 POLES ACB H2 BLOC Hyderabad Singapore 6 0.2236 NOS 37271.0
2016-04-18 85362010 47667AB NW 08/20 H2 3 POLES ACB H2 BLOC Hyderabad Singapore 12 0.4473 NOS 37271.0
2016-04-18 85362010 47681AB NW 08/20 H2 4 POLES ACB H2 BLOC Hyderabad Singapore 36 1.6883 NOS 46897.0
2016-04-18 85362010 47682AB NW 25/40 H2 4 POLES ACB H2 BLOC Hyderabad Singapore 8 0.3818 NOS 47726.0
2016-04-18 85362010 MVS21104 EP MVS 20 N-08/20 H 4 POLES CBBLK ACB K2 BLOC Hyderabad Singapore 36 1.3637 NOS 37879.0
2016-04-18 85021320 Electric generating sets and rotary converters CUMMINS 808 KW/1010 KVA CONTAINERIZED DG AMF CONTROL PANEL WITH 2 ACBs ( Nhava Sheva Sea MOJO ETHIOPIA 1 1.0725 SET 1072540.0
2016-04-18 85381010 MVS21301 EP MVS CHASSIS 3P 08/20 N/NA-08/25/H/HA ACB K2 CHASIS Hyderabad Le Havre 2 0.0266 NOS 13288.0
2016-04-19 85362010 47681AB NW 08/20 H2 4 POLES ACB H2 BLOC Hyderabad Air Cargo SINGAPORE 16 0.7504 NOS 46897.0
2016-04-19 85381010 47876 CHASSIS NW 4P 800-2500A ACB NW CHASIS Hyderabad Jebel Ali 24 0.448 NOS 18664.0
2016-04-19 85381010 ACB CRADLE (FIXED ARRANGEMENT TO MOUNT ACB), 1250H,L&T (APPENDIX 3B-MEIS SCHEDULE S/NO: 4406) Hyderabad Air Cargo DAMMAM 9 2.2311 PCS 247894.0
2016-04-19 85381010 ACB CRADLE 5000V,U POWER,RATING 4000A,4POLE (APPENDIX 3B-MEIS SCHEDULE S/NO: 4406) Hyderabad Air Cargo DAMMAM 6 1.9107 PCS 318452.0
2016-04-19 85381010 ACB POWER CONTACT JAW FOR C POWER ACB 2500H,4POLE L&T (APPENDIX 3B-MEIS SCHEDULES/NO: 4406) Hyderabad Air Cargo DAMMAM 9 0.9581 PCS 106457.0
2016-04-19 85381010 ACB POWER CONTACT JAW FOR U POWER ACB 5000A,4 POLE (APPENDIX 3B-MEIS SCHEDULE S/NO: 4406) Hyderabad Air Cargo DAMMAM 6 0.8334 PCS 138903.0
2016-04-19 85381010 ACB POWER CONTACT/JAW SPARE KIT FOR 2500H,L&T (APPENDIX 3B-MEIS SCHEDULE S/NO: 4406) Hyderabad Air Cargo DAMMAM 9 0.7382 PCS 82019.0
2016-04-19 85381010 MVS21302 EP MVS CHASSIS 4P 08/20 N/NA-08/25 H/HA ACB K2 CHASIS Hyderabad Jebel Ali 12 0.1826 NOS 15216.0
2016-04-20 84139190 PARTS OF PUMPS-MDRL SEAL MPT 5 1/2-8 ACB-P 6.000(PART NO.101292048) Nhava Sheva Sea Singapore 75 1.2091 NOS 16121.0
2016-04-20 84139190 PARTS OF PUMPS-MDRL SEAL MPT 5 1/2-8 ACB-P 6.000(PART NO.101293693) Nhava Sheva Sea Singapore 3 0.0288 NOS 9606.0
2016-04-20 84139190 PARTS OF PUMPS-MDRL SEAL MPW 5 1/2-8 ACB-P 6.000(PART NO.101291204) Nhava Sheva Sea Singapore 3 0.0288 NOS 9606.0
2016-04-21 85362010 Air Circuitr Breaker-\3WL1208-2CB42-4GA2-Z \ACB 800A N 4P Fi PART NO.106646535 Bombay Air Cargo BERLIN 1 0.1191 PCS 119132.0
2016-04-22 85369090 ROLLING MILL ELCTRICALS- ACB 1600 (SWITCH) Ludhiana Mombasa 1 0.0849 PCS 84882.0
2016-04-22 85369090 ROLLING MILL ELCTRICALS- ACB 2500 (SWITCH) Ludhiana Mombasa 1 0.1046 PCS 104622.0
2016-04-22 85369090 ROLLING MILL ELCTRICALS- ACB 4000 (SWITCH) Ludhiana Mombasa 1 0.2171 PCS 217140.0
2016-04-22 88024000 AIR CRAFT PARTS, ACB P/N: SSC-ACB-06313S/N: 014 Delhi Air Cargo GOTHENBURG 1 1.974 NOS 1973999.0
2016-04-23 85362010 MVS21104 EP MVS 20 N-08/20 H 4 POLES CBBLK ACB K2 BLOC Hyderabad Le Havre 12 0.4549 NOS 37908.0
2016-04-23 85362010 MVS21108 EP MVS 32/40 N-25/40 H 4 POLESCB BLK ACB K2 BLOC Hyderabad Le Havre 4 0.1659 NOS 41469.0
2016-04-26 84139190 PARTS OF PUMPS-MDRL SEAL MPT 5 1/2-8 ACB-P 6.000(PART NO.101292048) Nhava Sheva Sea Singapore 11 0.1775 NOS 16133.0
2016-04-26 85369090 OVER CURRENT RELEASE UNIT FOR3WT8ETU37WT FOR3WT8 ACB Mundra Dar Es Salaam 1 0.0324 NOS 32441.0
2016-04-26 85381010 SWITCHGEAR AND CONTROLGEAR OF VOLTAGE NOT EXCEEDING 1000V - MP1 ACB FXD 2500A 65KA 3P LSIG Nhava Sheva Sea Melbourne 1 0.1228 KGS 122769.0
2016-04-27 84821011 BALL BEARING ACB 6211 WOS BEARING BORE 55.00MM Nhava Sheva Sea Colombo 48 0.0247 NOS 513.0
2016-04-27 85362010 ELECTRICAL APPARATUS:AIR CIRCUIT BRAKER1250A-4PMDO,50KA E1N ACB PR121/LI Nhava Sheva Sea Tincan/Lagos 1 0.1292 SET 129183.0
2016-04-27 85362010 SWITCHGEAR AND CONTROLGEAR OF VOLTAGE NOT EXCEEDING 1000V - ACB C-POWER 1600A 4P EDO Nhava Sheva Sea Bahrain 4 0.5497 NOS 137419.0
2016-04-27 85381010 SWITCHGEAR AND CONTROLGEAR OF VOLTAGE NOT EXCEEDING 1000V - SPARE KIT, UNIVERSAL MECH I/L FOR ACBS Nhava Sheva Sea Bahrain 2 0.0118 NOS 5903.0
2016-04-28 85381010 47876 CHASSIS NW 4P 800-2500A ACB NW CHASIS Hyderabad Jebel Ali 21 0.3923 NOS 18679.0
2016-04-28 85381010 MVS21302 EP MVS CHASSIS 4P 08/20 N/NA-08/25 H/HA ACB K2 CHASIS Hyderabad Jebel Ali 12 0.1827 NOS 15228.0
2016-04-29 85381010 MVS21302 EP MVS CHASSIS 4P 08/20 N/NA-08/25 H/HA ACB K2 CHASIS Hyderabad Le Havre 10 0.1523 NOS 15228.0
2016-04-30 83025000 HAT-RACKS, HAT-PEGS, BRACKETS AND SIMILAR FIXTURES-ACB-CHR-1161N DOUBLE ROBE HOOK Delhi Air Cargo MUSCAT 50 0.0095 PCS 189.0
2016-04-30 85362010 47667AB NW 08/20 H2 3 POLES ACB H2 BLOC Hyderabad Singapore 6 0.2238 NOS 37299.0
2016-04-30 85362010 47681AB NW 08/20 H2 4 POLES ACB H2 BLOC Hyderabad Singapore 4 0.1877 NOS 46933.0
2016-04-30 85362010 47682AB NW 25/40 H2 4 POLES ACB H2 BLOC Hyderabad Singapore 4 0.191 NOS 47762.0
2016-04-30 85362010 MVS21104 EP MVS 20 N-08/20 H 4 POLES CBBLK ACB K2 BLOC Hyderabad Singapore 44 1.668 NOS 37908.0
2016-04-30 85362010 MVS21104 EP MVS 20 N-08/20 H 4 POLES CBBLK ACB K2 BLOCK Hyderabad Singapore 40 1.5163 NOS 37908.0
2016-04-30 85362010 MVS21104 EP MVS 20 N-08/20 H 4 POLES CBBLK ACB K2 CHASIS Hyderabad Singapore 8 0.3033 NOS 37908.0
2016-04-30 85362010 MVS21108 EP MVS 32/40 N-25/40 H 4 POLESCB BLK ACB K2 BLOCK Hyderabad Singapore 8 0.3318 NOS 41469.0
2016-04-30 85381010 47876 CHASSIS NW 4P 800-2500A ACB NW CHASIS Hyderabad Singapore 44 0.8219 NOS 18679.0
2016-04-30 85381010 MVS21301 EP MVS CHASSIS 3P 08/20 N/NA-08/25/H/HA ACB K2 CHASIS Hyderabad Singapore 55 0.7314 NOS 13297.0
2016-05-02 85362010 47667AB NW 08/20 H2 3 POLES ACB H2 BLOC Hyderabad Singapore 60 2.238 NOS 37299.0
2016-05-02 85362010 47668AB NW 25/40 H2 3 POLES ACB H2 BLOC Hyderabad Singapore 24 0.902 NOS 37583.0
2016-05-02 85362010 47681AB NW 08/20 H2 4 POLES ACB H2 BLOC Hyderabad Singapore 4 0.1877 NOS 46933.0
2016-05-02 85362010 47682AB NW 25/40 H2 4 POLES ACB H2 BLOC Hyderabad Singapore 4 0.191 NOS 47762.0
2016-05-02 85362010 MVS21101 EP MVS 08/16 N 3 POLES CB BLK ACB K2 BLOC Hyderabad Singapore 24 0.6859 NOS 28580.0
2016-05-02 85362010 MVS21104 EP MVS 20 N-08/20 H 4 POLES CBBLK ACB K2 BLOC Hyderabad Jebel Ali 4 0.1516 NOS 37908.0
2016-05-02 85362010 MVS21104 EP MVS 20 N-08/20 H 4 POLES CBBLK ACB K2 BLOC Hyderabad Le Havre 4 0.1515 NOS 37879.0
2016-05-02 85362010 MVS21104 EP MVS 20 N-08/20 H 4 POLES CBBLK ACB K2 BLOC Hyderabad Singapore 4 0.1516 NOS 37908.0
2016-05-02 85362010 MVS21104 EP MVS 20 N-08/20 H 4 POLES CBBLK ACB K2 BLOCK Hyderabad Le Havre 8 0.3032 NOS 37894.0
2016-05-02 85362010 MVS21202 EP MVS 20/25 NA-08/20 HA 3 POLES SD BLK ACB K2 BLOC Hyderabad Singapore 6 0.157 NOS 26166.0
2016-05-02 85362010 MVS21206 EP MVS 32/40 NA-25/40 HA 4 POLES SD BLK ACB K2 BLOC Hyderabad Singapore 4 0.144 NOS 36000.0
2016-05-02 85362010 SWITCHGEAR AND CONTROLGEAR OF VOLTAGE NOT EXCEEDING 1000V - ACB 2000A 4 POLE BREAKER Nhava Sheva Sea Keelung (Chilung) 1 0.0885 NOS 88502.0
2016-05-02 85381010 47876 CHASSIS NW 4P 800-2500A ACB NW CHASIS Hyderabad Singapore 8 0.1494 NOS 18679.0
2016-05-02 85381010 MVS21301 EP MVS CHASSIS 3P 08/20 N/NA-08/25/H/HA ACB K2 CHASIS Hyderabad Le Havre 4 0.0532 NOS 13287.0
2016-05-02 85381010 MVS21301 EP MVS CHASSIS 3P 08/20 N/NA-08/25/H/HA ACB K2 CHASIS Hyderabad Singapore 31 0.4122 NOS 13297.0
2016-05-02 85381010 MVS21302 EP MVS CHASSIS 4P 08/20 N/NA-08/25 H/HA ACB K2 CHASIS Hyderabad Jebel Ali 2 0.0305 NOS 15228.0
2016-05-03 85362010 47667AB NW 08/20 H2 3 POLES ACB H2 BLOC Hyderabad Singapore 12 0.4476 NOS 37299.0
2016-05-03 85362010 47668AB NW 25/40 H2 3 POLES ACB H2 BLOC Hyderabad Singapore 18 0.6765 NOS 37583.0
2016-05-03 85362010 47682AB NW 25/40 H2 4 POLES ACB H2 BLOC Hyderabad Singapore 4 0.191 NOS 47762.0
2016-05-03 85362010 MVS21101 EP MVS 08/16 N 3 POLES CB BLK ACB K2 BLOC Hyderabad Jakarta 24 0.6859 NOS 28580.0
2016-05-03 85362010 MVS21101 EP MVS 08/16 N 3 POLES CB BLK ACB K2 BLOC Hyderabad Singapore 36 1.0289 NOS 28580.0
2016-05-03 85362010 MVS21101 EP MVS 08/16 N 3 POLES CB BLK ACB K2 BLOCK Hyderabad Singapore 42 1.2004 NOS 28580.0
2016-05-03 85362010 MVS21104 EP MVS 20 N-08/20 H 4 POLES CBBLK ACB K2 BLOC Hyderabad Jakarta 20 0.7582 NOS 37908.0
2016-05-03 85362010 MVS21104 EP MVS 20 N-08/20 H 4 POLES CBBLK ACB K2 BLOC Hyderabad Singapore 20 0.7582 NOS 37908.0
2016-05-03 85362010 MVS21108 EP MVS 32/40 N-25/40 H 4 POLESCB BLK ACB K2 BLOC Hyderabad Jakarta 4 0.1659 NOS 41469.0

Acb Trade Data - Indian Ports

S. No Product Product Code Quantity Value (INR in Million) Unit Origin Port Destination Port
RUBBER GOODS: ACB SEAL 135 X 170 X 15 MM 40169330 80 0.0437 PCS Bombay Air Cargo VILNIUS
RUBBER GOODS: ACB SEAL 75 X 100 X 10 MM 40169330 68 0.014 PCS Bombay Air Cargo VILNIUS
47595AB NW 08/20 H2 4 POLES RIGHT NEUTRAL ACB H2 BLOC 85362010 4 0.2034 NOS Hyderabad Singapore
47688 NW 08/20 NA/HA 4 POLES ACB NW BLOC 85362010 16 0.5104 NOS Hyderabad Singapore
47689 NW 25/40 NA/HA 4 POLES ACB NW BLOC 85362010 4 0.1393 NOS Hyderabad Singapore
MVS21101 EP MVS 08/16 N 3 POLES CB BLK ACB K2 BLOC 85362010 6 0.1729 NOS Hyderabad Singapore
MVS21202 EP MVS 20/25 NA-08/20 HA 3 POLES SD BLK ACB K2 BLOC 85362010 12 0.3166 NOS Hyderabad Singapore
ACB PANEL FOR APFC CAPACITOR PANELSUPPLY OF 1 NO.ACB, EDO.800A, 3 POLE & 3 NO. CT, 1600/5A IN Y-PHASE 85015310 1 0.2456 NOS Nhava Sheva Sea Nacala
MVS21302 EP MVS CHASSIS 4P 08/20 N/NA-08/25 H/HA ACB K2 CHASIS 85381010 13 0.1996 NOS Hyderabad Singapore
MVS21304 EP MVS CHASSIS 4P 25 N/NA ACB K2 CHASIS 85381010 9 0.1475 NOS Hyderabad Le Havre
SWITCHGEAR AND CONTROLGEAR OF VOLTAGE NOT EXCEEDING 1000V- MP ACB INTERLOCK 1 OF2 2MT 85381010 8 0.0203 NOS Bombay Air Cargo MELBOURNE
ACB SHUNT RELEASE 200/250V AC/DC (LOW VOLTAGE SWITCHGEAR) 85369010 3 0.0107 NOS Chennai Air Cargo SHARJAH
MVS21302 EP MVS CHASSIS 4P 08/20 N/NA-08/25 H/HA ACB K2 CHASIS 85381010 5 0.0768 NOS Hyderabad Le Havre
MVS21302 EP MVS CHASSIS 4P 08/20 N/NA-08/25 H/HA ACB K2 CHASIS 85381010 2 0.0307 NOS Hyderabad Singapore
SWITCHGEAR AND CONTROLGEAR OF VOLTAGE NOT EXCEEDING 1000V - MP1 ACB W/D 1250A 65KA 3P LSIG 85362010 12 1.3348 NOS Nhava Sheva Sea Melbourne
SWITCHGEAR AND CONTROLGEAR OF VOLTAGE NOT EXCEEDING 1000V - MP1 ACB W/D 2000A 65KA 3P LSIG 85362010 2 0.275 NOS Nhava Sheva Sea Melbourne
SWITCHGEAR AND CONTROLGEAR OF VOLTAGE NOT EXCEEDING 1000V - MP1 ACB W/D 2500A 65KA 3P LSIG 85362010 3 0.4381 NOS Nhava Sheva Sea Melbourne
SWITCHGEAR AND CONTROLGEAR OF VOLTAGE NOT EXCEEDING 1000V - MP1 ACB FXD 2000A 65KA 3P LSIG 85381010 2 0.2305 NOS Nhava Sheva Sea Melbourne
SWITCHGEAR AND CONTROLGEAR OF VOLTAGE NOT EXCEEDING 1000V - MP2 ACB W/D 3200A 65KA 3P LSIG 85381010 1 0.1884 NOS Nhava Sheva Sea Melbourne
ACB HANDLING TROLLEY JET HYDRAULIC HANDSTACKER L1650XW950XH1560MM MODEL : TMST1020 84279000 2 0.1165 NOS Tughlakabad Jebel Ali
CASE NO:001/16-17 VERTICAL BORINGMACHINE M/C,MODEL ACB/300WITH STDACCESSORIES 28461010 1 0.9333 NOS Cochin Sea Jeddah
SWITCHGEAR AND CONTROLGEAR OF VOLTAGE NOT EXCEEDING 1000V - ACB 1600A S1 3P MDOBUS COUPLER + 240VSR 85362010 2 0.1005 NOS Nhava Sheva Sea Port Kelang
ELECTRICAL PANEL WITH STANDARD ACCESSORIES - 1600A ACB CHANGEOVER PANEL FOR TRANSFORMER / GENERATOR 85371000 1 0.5224 NOS Nhava Sheva Sea Apapa
ELECTRICAL PANEL WITH STANDARD ACCESSORIES - SPARE COMPONENTS FOR PANELS-SHUNT TRIP 230VAC FOR ACB 85371000 2 0.0038 NOS Nhava Sheva Sea Apapa
ELECTRICAL PANEL WITH STANDARD ACCESSORIES -1600A ACB PANEL FOR TRANSFORMER 85371000 1 0.2455 NOS Nhava Sheva Sea Apapa

Looking to export Acb from India?

With end to end global trade solutions from Connect2India, we enable Indian SMEs to start and grow their business globally

The following graphs and table will provide data on Acb export based on different Indian ports, top importing ports and top export shipments of Acb from India.

There are about 29 top exporting ports in India which trade Acb from India, Hyderabad exports the majority of Acb shipments from India with the share of 54.0% , followed by Nhava Sheva Sea with 18.0%.

Moving to top importing ports for Acb from India. Singapore port solely imports 574 shipments of Acb from India and holds the largest share of 38.0%.

Looking to arrange Acb export order to verified buyers across the globe?

Graphical representation for Acb export

Acb - Recent export data

How connect2india can help you export Acb?

Connect2India can help you analyse Acb export data from India to all buying countries. Users can also find here Acb manufacturers, Acb exporters, global buyers etc. Our platform also helps you to figure out the right target market to export Acb and arrange export order, know about the procedure and formalities for export and help you in Acb shipment and logistics. Our trade experts are always available for any help regarding the export of Acb and its products. If you want more information, please get in touch with our trade experts here.

People Also Ask

Which is the most popular Indian port for Acb export?

Hyderabad is the most popular port for Acb export from India

What are the top three export shipments of Acb traded from India?

Following are the top three export shipments of Acb traded from India :

  • 47667AB NW 08/20 H2 3 POLES ACB H2 BLOC
  • 47667AB NW 08/20 H2 3 POLES ACB H2 BLOC
  • 47681AB NW 08/20 H2 4 POLES ACB H2 BLOC